createdAt,value
2022-12-11T00:02:32.119Z,6.03
2022-12-11T00:05:14.829Z,6.72
2022-12-11T00:07:58.077Z,6.15
2022-12-11T00:10:40.782Z,5.60
2022-12-11T00:13:24.795Z,6.30
2022-12-11T00:16:07.764Z,6.53
2022-12-11T00:18:50.433Z,6.20
2022-12-11T00:21:33.498Z,5.68
2022-12-11T00:24:16.241Z,5.97
2022-12-11T00:26:59.122Z,7.13
2022-12-11T00:29:43.278Z,5.63
2022-12-11T00:32:28.361Z,8.35
2022-12-11T00:35:11.665Z,5.18
2022-12-11T00:37:54.514Z,5.88
2022-12-11T00:40:38.679Z,5.80
2022-12-11T00:43:21.314Z,5.57
2022-12-11T00:46:05.507Z,5.38
2022-12-11T00:48:50.048Z,6.45
2022-12-11T00:51:32.660Z,7.28
2022-12-11T00:54:15.295Z,6.05
2022-12-11T00:56:57.911Z,5.70
2022-12-11T00:59:40.567Z,6.55
2022-12-11T01:02:24.556Z,6.00
2022-12-11T01:05:07.882Z,7.68
2022-12-11T01:07:50.732Z,7.68
2022-12-11T01:10:33.486Z,6.55
2022-12-11T01:13:16.287Z,6.88
2022-12-11T01:15:58.888Z,6.95
2022-12-11T01:18:43.080Z,6.38
2022-12-11T01:21:25.884Z,8.68
2022-12-11T01:24:08.462Z,5.97
2022-12-11T01:26:51.088Z,7.97
2022-12-11T01:29:33.698Z,6.75
2022-12-11T01:32:16.562Z,6.15
2022-12-11T01:35:00.561Z,7.60
2022-12-11T01:37:43.129Z,7.05
2022-12-11T01:40:25.984Z,6.97
2022-12-11T01:43:10.325Z,8.23
2022-12-11T01:45:52.940Z,7.63
2022-12-11T01:48:40.684Z,6.18
2022-12-11T01:51:26.513Z,5.50
2022-12-11T01:54:11.661Z,6.68
2022-12-11T01:56:55.282Z,5.28
2022-12-11T01:59:39.727Z,7.25
2022-12-11T02:02:23.742Z,5.97
2022-12-11T02:05:07.352Z,5.13
2022-12-11T02:07:53.555Z,6.75
2022-12-11T02:10:44.712Z,5.68
2022-12-11T02:13:30.230Z,5.72
2022-12-11T02:16:18.540Z,6.22
2022-12-11T02:19:03.546Z,6.80
2022-12-11T02:21:49.366Z,5.00
2022-12-11T02:24:46.566Z,7.55
2022-12-11T02:27:33.150Z,6.30
2022-12-11T02:30:19.412Z,6.10
2022-12-11T02:33:01.957Z,6.63
2022-12-11T02:35:45.305Z,7.75
2022-12-11T02:38:29.732Z,5.82
2022-12-11T02:41:12.975Z,7.63
2022-12-11T02:43:56.542Z,7.00
2022-12-11T02:46:41.411Z,6.95
2022-12-11T02:49:24.658Z,6.45
2022-12-11T02:52:07.909Z,6.38
2022-12-11T02:54:51.893Z,6.65
2022-12-11T02:57:36.341Z,5.93
2022-12-11T03:00:19.661Z,7.13
2022-12-11T03:03:04.062Z,6.90
2022-12-11T03:05:47.573Z,8.43
2022-12-11T03:08:30.279Z,7.15
2022-12-11T03:11:13.238Z,6.47
2022-12-11T03:13:55.958Z,6.53
2022-12-11T03:16:39.432Z,7.18
2022-12-11T03:19:25.710Z,6.85
2022-12-11T03:22:11.312Z,6.30
2022-12-11T03:24:55.515Z,8.18
2022-12-11T03:27:43.868Z,6.60
2022-12-11T03:30:27.400Z,6.72
2022-12-11T03:33:12.119Z,6.57
2022-12-11T03:35:57.774Z,7.20
2022-12-11T03:38:42.649Z,5.57
2022-12-11T03:41:26.897Z,6.95
2022-12-11T03:44:09.788Z,6.07
2022-12-11T03:46:53.436Z,6.63
2022-12-11T03:49:37.767Z,7.25
2022-12-11T03:52:22.007Z,7.15
2022-12-11T03:55:05.737Z,8.23
2022-12-11T03:57:48.497Z,8.85
2022-12-11T04:00:31.135Z,9.30
2022-12-11T04:03:17.962Z,9.05
2022-12-11T04:06:00.626Z,9.48
2022-12-11T04:08:44.528Z,9.80
2022-12-11T04:11:36.283Z,9.85
2022-12-11T04:14:36.328Z,8.52
2022-12-11T04:17:40.568Z,9.95
2022-12-11T04:20:40.646Z,9.13
2022-12-11T04:23:40.399Z,9.60
2022-12-11T04:26:24.354Z,8.80
2022-12-11T04:29:06.959Z,10.10
2022-12-11T04:31:50.667Z,9.10
2022-12-11T04:34:33.332Z,10.93
2022-12-11T04:37:15.938Z,10.13
2022-12-11T04:39:58.472Z,8.38
2022-12-11T04:42:42.531Z,9.48
2022-12-11T04:45:25.141Z,10.32
2022-12-11T04:48:08.511Z,11.02
2022-12-11T04:50:51.080Z,10.57
2022-12-11T04:53:33.666Z,8.75
2022-12-11T04:56:16.883Z,10.38
2022-12-11T04:59:00.813Z,9.57
2022-12-11T05:01:43.469Z,9.38
2022-12-11T05:04:26.078Z,9.95
2022-12-11T05:07:09.273Z,9.68
2022-12-11T05:09:51.802Z,9.40
2022-12-11T05:12:34.689Z,10.57
2022-12-11T05:15:18.735Z,10.65
2022-12-11T05:18:01.364Z,11.02
2022-12-11T05:20:43.895Z,10.75
2022-12-11T05:23:26.992Z,9.02
2022-12-11T05:26:11.858Z,9.80
2022-12-11T05:28:55.037Z,10.57
2022-12-11T05:31:39.075Z,8.50
2022-12-11T05:34:21.664Z,9.98
2022-12-11T05:37:04.378Z,9.52
2022-12-11T05:39:46.931Z,8.23
2022-12-11T05:42:29.599Z,8.23
2022-12-11T05:45:12.682Z,8.45
2022-12-11T05:47:56.861Z,10.15
2022-12-11T05:50:39.448Z,7.95
2022-12-11T05:53:23.139Z,9.25
2022-12-11T05:56:07.168Z,7.57
2022-12-11T05:58:50.633Z,9.63
2022-12-11T06:01:34.170Z,8.63
2022-12-11T06:04:18.156Z,9.45
2022-12-11T06:07:00.718Z,8.13
2022-12-11T06:09:43.384Z,8.48
2022-12-11T06:12:25.957Z,8.18
2022-12-11T06:15:09.654Z,8.18
2022-12-11T06:17:52.358Z,10.20
2022-12-11T06:20:36.365Z,13.23
2022-12-11T06:23:18.918Z,9.88
2022-12-11T06:26:01.560Z,10.82
2022-12-11T06:28:44.299Z,10.40
2022-12-11T06:31:26.946Z,10.63
2022-12-11T06:34:09.956Z,9.35
2022-12-11T06:36:53.965Z,10.23
2022-12-11T06:39:36.593Z,11.63
2022-12-11T06:42:19.150Z,11.07
2022-12-11T06:45:01.816Z,10.20
2022-12-11T06:47:44.424Z,11.15
2022-12-11T06:50:27.138Z,14.60
2022-12-11T06:53:12.855Z,15.13
2022-12-11T06:55:55.466Z,13.70
2022-12-11T06:58:39.022Z,14.32
2022-12-11T07:01:22.628Z,19.65
2022-12-11T07:04:05.301Z,19.85
2022-12-11T07:06:49.159Z,15.35
2022-12-11T07:09:33.241Z,15.93
2022-12-11T07:12:15.798Z,13.73
2022-12-11T07:14:58.382Z,12.23
2022-12-11T07:17:40.998Z,13.20
2022-12-11T07:20:23.661Z,13.60
2022-12-11T07:23:06.272Z,13.80
2022-12-11T07:25:50.252Z,12.52
2022-12-11T07:28:32.840Z,13.95
2022-12-11T07:31:16.503Z,12.05
2022-12-11T07:34:00.271Z,10.10
2022-12-11T07:36:43.518Z,10.90
2022-12-11T07:39:26.110Z,11.20
2022-12-11T07:42:10.095Z,10.88
2022-12-11T07:44:52.674Z,11.05
2022-12-11T07:47:35.337Z,10.60
2022-12-11T07:50:18.071Z,10.25
2022-12-11T07:53:00.671Z,12.30
2022-12-11T07:55:43.316Z,15.75
2022-12-11T07:58:27.383Z,13.90
2022-12-11T08:01:11.685Z,14.77
2022-12-11T08:03:54.897Z,13.35
2022-12-11T08:06:38.616Z,11.85
2022-12-11T08:09:22.572Z,13.27
2022-12-11T08:12:05.442Z,13.60
2022-12-11T08:14:49.380Z,13.32
2022-12-11T08:17:39.710Z,13.63
2022-12-11T08:20:22.720Z,14.13
2022-12-11T08:23:05.316Z,14.43
2022-12-11T08:25:47.864Z,13.20
2022-12-11T08:28:30.707Z,15.27
2022-12-11T08:31:15.576Z,14.73
2022-12-11T08:33:58.576Z,16.10
2022-12-11T08:36:41.266Z,15.65
2022-12-11T08:39:25.062Z,17.35
2022-12-11T08:42:08.190Z,18.58
2022-12-11T08:44:51.751Z,16.73
2022-12-11T08:47:37.400Z,13.65
2022-12-11T08:50:20.023Z,15.43
2022-12-11T08:53:02.821Z,15.77
2022-12-11T08:55:45.458Z,16.15
2022-12-11T08:58:28.241Z,15.30
2022-12-11T09:01:12.161Z,14.20
2022-12-11T09:03:57.050Z,14.13
2022-12-11T09:06:39.627Z,12.57
2022-12-11T09:09:22.500Z,16.33
2022-12-11T09:12:05.756Z,12.95
2022-12-11T09:14:48.440Z,13.55
2022-12-11T09:17:31.031Z,14.18
2022-12-11T09:20:15.439Z,12.10
2022-12-11T09:22:57.999Z,15.32
2022-12-11T09:25:40.834Z,12.45
2022-12-11T09:28:23.440Z,13.82
2022-12-11T09:31:09.465Z,15.00
2022-12-11T09:33:52.596Z,14.60
2022-12-11T09:36:36.678Z,17.25
2022-12-11T09:39:19.401Z,14.02
2022-12-11T09:42:05.549Z,15.68
2022-12-11T09:44:49.942Z,16.58
2022-12-11T09:47:34.895Z,15.07
2022-12-11T09:50:20.377Z,14.07
2022-12-11T09:53:09.385Z,15.05
2022-12-11T09:55:56.141Z,12.55
2022-12-11T09:58:40.773Z,16.20
2022-12-11T10:01:27.437Z,15.23
2022-12-11T10:04:28.500Z,14.20
2022-12-11T10:07:13.051Z,13.43
2022-12-11T10:10:00.528Z,13.07
2022-12-11T10:12:46.493Z,12.55
2022-12-11T10:15:36.023Z,13.45
2022-12-11T10:18:21.289Z,12.82
2022-12-11T10:21:04.471Z,13.55
2022-12-11T10:23:52.104Z,12.38
2022-12-11T10:26:37.864Z,12.57
2022-12-11T10:29:20.886Z,11.75
2022-12-11T10:32:04.480Z,13.52
2022-12-11T10:34:47.625Z,13.38
2022-12-11T10:37:30.357Z,12.43
2022-12-11T10:40:14.114Z,11.70
2022-12-11T10:42:58.034Z,13.48
2022-12-11T10:45:40.898Z,15.38
2022-12-11T10:48:23.707Z,13.32
2022-12-11T10:51:07.674Z,12.20
2022-12-11T10:53:51.298Z,17.30
2022-12-11T10:56:34.635Z,13.68
2022-12-11T10:59:24.369Z,14.02
2022-12-11T11:02:08.293Z,14.18
2022-12-11T11:04:51.678Z,15.70
2022-12-11T11:07:34.393Z,14.48
2022-12-11T11:10:18.204Z,12.98
2022-12-11T11:13:01.727Z,12.60
2022-12-11T11:15:46.255Z,13.60
2022-12-11T11:18:30.579Z,13.52
2022-12-11T11:21:17.627Z,12.95
2022-12-11T11:24:00.407Z,13.30
2022-12-11T11:27:12.334Z,13.82
2022-12-11T11:29:52.906Z,12.90
2022-12-11T11:32:38.680Z,13.77
2022-12-11T11:35:22.649Z,13.23
2022-12-11T11:38:06.822Z,11.68
2022-12-11T11:40:52.194Z,11.85
2022-12-11T11:43:37.216Z,14.48
2022-12-11T11:46:23.129Z,15.75
2022-12-11T11:49:09.943Z,12.43
2022-12-11T11:51:55.214Z,14.00
2022-12-11T11:54:40.893Z,14.20
2022-12-11T11:57:25.258Z,12.35
2022-12-11T12:00:13.249Z,14.70
2022-12-11T12:02:57.609Z,12.38
2022-12-11T12:05:46.805Z,11.90
2022-12-11T12:08:35.224Z,14.18
2022-12-11T12:11:23.400Z,14.55
2022-12-11T12:14:35.826Z,13.30
2022-12-11T12:17:19.437Z,13.40
2022-12-11T12:20:07.133Z,13.52
2022-12-11T12:22:58.424Z,13.27
2022-12-11T12:25:43.664Z,13.05
2022-12-11T12:28:30.305Z,13.55
2022-12-11T12:31:18.966Z,11.32
2022-12-11T12:34:03.855Z,10.93
2022-12-11T12:36:50.754Z,10.73
2022-12-11T12:39:39.038Z,10.77
2022-12-11T12:42:28.212Z,12.45
2022-12-11T12:45:15.171Z,11.77
2022-12-11T12:47:57.920Z,12.65
2022-12-11T12:50:43.387Z,10.80
2022-12-11T12:53:28.138Z,11.20
2022-12-11T12:56:12.950Z,12.60
2022-12-11T12:58:55.675Z,11.68
2022-12-11T13:01:39.408Z,12.13
2022-12-11T13:04:55.163Z,11.65
2022-12-11T13:07:38.853Z,11.90
2022-12-11T13:10:26.405Z,11.68
2022-12-11T13:13:23.925Z,11.48
2022-12-11T13:16:09.014Z,13.25
2022-12-11T13:18:52.016Z,10.30
2022-12-11T13:21:35.398Z,14.55
2022-12-11T13:24:25.625Z,10.88
2022-12-11T13:27:11.667Z,11.23
2022-12-11T13:30:05.713Z,10.63
2022-12-11T13:32:55.535Z,13.35
2022-12-11T13:35:38.204Z,9.82
2022-12-11T13:38:21.756Z,13.07
2022-12-11T13:41:05.960Z,14.50
2022-12-11T13:43:49.771Z,13.30
2022-12-11T13:46:34.903Z,10.63
2022-12-11T13:49:23.111Z,11.82
2022-12-11T13:52:06.762Z,12.25
2022-12-11T13:54:50.446Z,12.18
2022-12-11T13:57:33.123Z,10.98
2022-12-11T14:00:21.178Z,11.30
2022-12-11T14:03:07.421Z,10.85
2022-12-11T14:05:51.616Z,12.25
2022-12-11T14:08:36.178Z,16.45
2022-12-11T14:11:22.587Z,14.35
2022-12-11T14:14:06.562Z,14.63
2022-12-11T14:16:50.192Z,12.25
2022-12-11T14:19:32.900Z,15.35
2022-12-11T14:22:21.361Z,12.27
2022-12-11T14:25:19.196Z,12.63
2022-12-11T14:28:02.593Z,14.40
2022-12-11T14:30:47.673Z,12.70
2022-12-11T14:33:33.500Z,10.68
2022-12-11T14:36:17.484Z,13.70
2022-12-11T14:39:03.128Z,11.70
2022-12-11T14:41:49.182Z,13.05
2022-12-11T14:44:33.506Z,12.63
2022-12-11T14:47:17.841Z,14.32
2022-12-11T14:50:02.573Z,9.70
2022-12-11T14:52:47.184Z,13.32
2022-12-11T14:55:32.758Z,11.43
2022-12-11T14:58:17.182Z,14.68
2022-12-11T15:01:01.091Z,14.65
2022-12-11T15:03:43.971Z,14.40
2022-12-11T15:06:29.164Z,11.70
2022-12-11T15:09:18.529Z,11.55
2022-12-11T15:12:09.396Z,11.30
2022-12-11T15:14:53.206Z,12.07
2022-12-11T15:17:37.419Z,11.75
2022-12-11T15:20:25.009Z,12.18
2022-12-11T15:23:08.360Z,11.27
2022-12-11T15:25:52.276Z,10.95
2022-12-11T15:28:37.549Z,13.05
2022-12-11T15:31:27.190Z,15.35
2022-12-11T15:34:22.243Z,14.65
2022-12-11T15:37:04.926Z,15.73
2022-12-11T15:39:47.642Z,24.70
2022-12-11T15:42:32.628Z,31.58
2022-12-11T15:45:18.981Z,32.92
2022-12-11T15:48:01.656Z,31.75
2022-12-11T15:50:44.271Z,31.58
2022-12-11T15:53:27.152Z,25.30
2022-12-11T15:56:13.151Z,27.92
2022-12-11T15:59:04.499Z,32.22
2022-12-11T16:01:48.692Z,29.63
2022-12-11T16:04:31.381Z,28.65
2022-12-11T16:07:16.481Z,27.65
2022-12-11T16:09:59.177Z,27.42
2022-12-11T16:12:42.779Z,22.35
2022-12-11T16:15:25.430Z,15.10
2022-12-11T16:18:10.240Z,14.77
2022-12-11T16:20:53.287Z,14.80
2022-12-11T16:23:35.930Z,18.83
2022-12-11T16:26:18.601Z,17.13
2022-12-11T16:29:01.701Z,17.05
2022-12-11T16:31:44.661Z,17.48
2022-12-11T16:34:28.941Z,18.65
2022-12-11T16:37:11.651Z,19.45
2022-12-11T16:39:54.283Z,16.52
2022-12-11T16:42:36.942Z,16.13
2022-12-11T16:45:20.776Z,17.10
2022-12-11T16:48:03.472Z,15.18
2022-12-11T16:50:47.819Z,18.35
2022-12-11T16:53:30.471Z,19.17
2022-12-11T16:56:13.258Z,19.50
2022-12-11T16:58:56.251Z,15.20
2022-12-11T17:01:39.137Z,19.52
2022-12-11T17:04:22.167Z,19.48
2022-12-11T17:07:06.329Z,16.35
2022-12-11T17:09:48.937Z,16.02
2022-12-11T17:12:31.796Z,16.23
2022-12-11T17:15:14.849Z,15.40
2022-12-11T17:17:57.617Z,26.48
2022-12-11T17:20:41.001Z,27.80
2022-12-11T17:23:26.103Z,23.50
2022-12-11T17:26:08.980Z,19.88
2022-12-11T17:28:52.084Z,19.00
2022-12-11T17:31:34.845Z,20.05
2022-12-11T17:34:17.891Z,20.42
2022-12-11T17:37:00.950Z,21.33
2022-12-11T17:39:45.132Z,19.33
2022-12-11T17:42:27.738Z,19.23
2022-12-11T17:45:11.065Z,18.15
2022-12-11T17:47:53.937Z,21.00
2022-12-11T17:50:36.535Z,19.27
2022-12-11T17:53:20.141Z,20.65
2022-12-11T17:56:04.830Z,21.42
2022-12-11T17:58:47.530Z,23.27
2022-12-11T18:01:30.155Z,21.23
2022-12-11T18:04:14.095Z,21.30
2022-12-11T18:06:56.813Z,20.77
2022-12-11T18:09:40.077Z,18.13
2022-12-11T18:12:24.017Z,20.90
2022-12-11T18:15:07.147Z,24.20
2022-12-11T18:17:49.749Z,25.02
2022-12-11T18:20:32.603Z,27.30
2022-12-11T18:23:15.253Z,34.85
2022-12-11T18:25:58.113Z,28.75
2022-12-11T18:28:42.121Z,39.22
2022-12-11T18:31:25.186Z,30.83
2022-12-11T18:34:07.982Z,23.50
2022-12-11T18:36:50.691Z,20.58
2022-12-11T18:39:33.685Z,18.25
2022-12-11T18:42:33.403Z,19.35
2022-12-11T18:45:17.891Z,16.58
2022-12-11T18:48:00.524Z,19.63
2022-12-11T18:50:45.401Z,17.42
2022-12-11T18:53:28.078Z,26.10
2022-12-11T18:56:12.084Z,25.38
2022-12-11T18:58:54.746Z,24.05
2022-12-11T19:01:38.756Z,24.70
2022-12-11T19:04:21.451Z,26.52
2022-12-11T19:07:04.287Z,26.30
2022-12-11T19:09:48.445Z,28.38
2022-12-11T19:12:31.493Z,26.85
2022-12-11T19:15:15.869Z,23.25
2022-12-11T19:18:02.439Z,25.63
2022-12-11T19:20:53.639Z,25.08
2022-12-11T19:23:41.107Z,22.38
2022-12-11T19:26:24.772Z,23.55
2022-12-11T19:29:07.821Z,22.77
2022-12-11T19:31:50.597Z,21.55
2022-12-11T19:34:34.705Z,20.10
2022-12-11T19:37:17.322Z,19.42
2022-12-11T19:40:00.024Z,17.95
2022-12-11T19:42:42.810Z,21.15
2022-12-11T19:45:25.445Z,20.38
2022-12-11T19:48:08.088Z,22.55
2022-12-11T19:50:52.085Z,22.80
2022-12-11T19:53:36.286Z,23.75
2022-12-11T19:56:19.251Z,20.70
2022-12-11T19:59:02.889Z,23.85
2022-12-11T20:01:48.058Z,24.80
2022-12-11T20:04:31.045Z,22.75
2022-12-11T20:07:15.259Z,21.75
2022-12-11T20:10:00.195Z,21.45
2022-12-11T20:12:43.338Z,20.85
2022-12-11T20:15:27.057Z,22.23
2022-12-11T20:18:16.892Z,22.65
2022-12-11T20:21:01.474Z,21.20
2022-12-11T20:23:45.751Z,20.02
2022-12-11T20:26:29.958Z,20.02
2022-12-11T20:29:13.437Z,23.13
2022-12-11T20:31:56.267Z,25.70
2022-12-11T20:34:38.968Z,21.98
2022-12-11T20:37:21.636Z,21.45
2022-12-11T20:40:06.119Z,21.05
2022-12-11T20:42:48.770Z,19.90
2022-12-11T20:45:31.512Z,20.48
2022-12-11T20:48:14.226Z,22.77
2022-12-11T20:51:00.332Z,20.67
2022-12-11T20:53:43.626Z,21.95
2022-12-11T20:56:28.197Z,22.13
2022-12-11T20:59:11.754Z,20.80
2022-12-11T21:01:54.748Z,21.75
2022-12-11T21:04:39.708Z,21.15
2022-12-11T21:07:22.800Z,21.05
2022-12-11T21:10:05.753Z,30.85
2022-12-11T21:12:49.909Z,37.63
2022-12-11T21:15:32.516Z,40.42
2022-12-11T21:18:15.203Z,40.78
2022-12-11T21:20:57.846Z,34.60
2022-12-11T21:23:40.595Z,24.25
2022-12-11T21:26:23.490Z,27.05
2022-12-11T21:29:07.702Z,26.75
2022-12-11T21:31:51.255Z,22.58
2022-12-11T21:34:34.008Z,21.55
2022-12-11T21:37:16.611Z,18.83
2022-12-11T21:40:00.214Z,19.33
2022-12-11T21:42:42.819Z,18.23
2022-12-11T21:48:29.534Z,18.70
2022-12-11T21:51:13.241Z,20.20
2022-12-11T21:53:55.813Z,17.60
2022-12-11T21:56:38.391Z,17.15
2022-12-11T21:59:21.142Z,19.35
2022-12-11T22:02:05.271Z,15.73
2022-12-11T22:04:48.311Z,22.60
2022-12-11T22:07:30.981Z,20.88
2022-12-11T22:10:13.697Z,21.25
2022-12-11T22:12:56.320Z,21.85
2022-12-11T22:15:39.118Z,19.70
2022-12-11T22:18:26.934Z,22.15
2022-12-11T22:21:09.587Z,22.00
2022-12-11T22:23:52.332Z,20.00
2022-12-11T22:26:34.939Z,19.90
2022-12-11T22:29:17.639Z,22.33
2022-12-11T22:32:00.281Z,21.55
2022-12-11T22:34:44.390Z,22.40
2022-12-11T22:37:27.017Z,20.42
2022-12-11T22:40:09.946Z,23.30
2022-12-11T22:42:52.525Z,22.92
2022-12-11T22:45:39.228Z,20.35
2022-12-11T22:48:22.069Z,23.52
2022-12-11T22:51:07.099Z,22.25
2022-12-11T22:53:49.830Z,22.08
2022-12-11T22:56:32.645Z,24.40
2022-12-11T22:59:15.268Z,23.63
2022-12-11T23:01:57.917Z,23.30
2022-12-11T23:04:40.547Z,22.85
2022-12-11T23:07:24.520Z,21.45
2022-12-11T23:10:08.097Z,23.42
2022-12-11T23:12:50.761Z,22.15
2022-12-11T23:15:33.384Z,33.63
2022-12-11T23:18:16.182Z,29.00
2022-12-11T23:20:58.743Z,30.48
2022-12-11T23:23:42.946Z,27.73
2022-12-11T23:26:27.197Z,26.38
2022-12-11T23:29:10.078Z,23.13
2022-12-11T23:31:52.640Z,22.88
2022-12-11T23:34:35.283Z,22.38
2022-12-11T23:37:17.942Z,23.98
2022-12-11T23:40:01.929Z,25.38
2022-12-11T23:42:44.486Z,23.95
2022-12-11T23:45:27.072Z,24.42
2022-12-11T23:48:09.637Z,20.45
2022-12-11T23:50:52.294Z,21.77
2022-12-11T23:53:34.956Z,21.42
2022-12-11T23:56:20.350Z,21.67
2022-12-11T23:59:02.934Z,21.48
